createdAt,value
2018-12-22T00:00:25.964Z,21.90
2018-12-22T00:02:54.430Z,16.50
2018-12-22T00:05:22.908Z,15.83
2018-12-22T00:07:51.405Z,21.20
2018-12-22T00:10:19.948Z,16.50
2018-12-22T00:12:48.407Z,16.60
2018-12-22T00:15:16.947Z,13.93
2018-12-22T00:17:45.521Z,14.07
2018-12-22T00:20:13.987Z,11.13
2018-12-22T00:22:43.540Z,16.50
2018-12-22T00:25:12.018Z,15.77
2018-12-22T00:27:40.809Z,13.00
2018-12-22T00:30:09.707Z,15.07
2018-12-22T00:32:38.177Z,13.57
2018-12-22T00:35:06.941Z,12.53
2018-12-22T00:37:35.451Z,14.57
2018-12-22T00:40:04.344Z,13.00
2018-12-22T00:42:32.835Z,11.33
2018-12-22T00:45:01.485Z,12.40
2018-12-22T00:47:29.953Z,9.63
2018-12-22T00:49:58.446Z,11.77
2018-12-22T00:52:27.115Z,13.40
2018-12-22T00:54:55.554Z,8.43
2018-12-22T00:57:24.024Z,11.87
2018-12-22T00:59:52.633Z,9.73
2018-12-22T01:02:21.122Z,13.43
2018-12-22T01:04:49.621Z,15.17
2018-12-22T01:07:18.136Z,10.40
2018-12-22T01:09:46.603Z,12.07
2018-12-22T01:12:15.069Z,11.97
2018-12-22T01:14:43.565Z,10.80
2018-12-22T01:17:12.046Z,9.37
2018-12-22T01:19:40.529Z,10.67
2018-12-22T01:22:09.073Z,10.50
2018-12-22T01:24:37.588Z,8.57
2018-12-22T01:27:06.101Z,12.53
2018-12-22T01:29:34.621Z,10.33
2018-12-22T01:32:03.292Z,8.77
2018-12-22T01:34:31.793Z,13.60
2018-12-22T01:37:00.297Z,11.87
2018-12-22T01:39:28.771Z,10.67
2018-12-22T01:41:57.341Z,13.33
2018-12-22T01:44:25.877Z,10.87
2018-12-22T01:46:54.346Z,9.13
2018-12-22T01:49:22.809Z,8.77
2018-12-22T01:51:51.340Z,13.23
2018-12-22T01:54:19.845Z,12.30
2018-12-22T01:56:48.364Z,11.07
2018-12-22T01:59:16.943Z,7.90
2018-12-22T02:01:45.430Z,9.63
2018-12-22T02:04:13.855Z,9.73
2018-12-22T02:06:42.374Z,7.33
2018-12-22T02:09:10.840Z,8.20
2018-12-22T02:11:39.338Z,7.93
2018-12-22T02:14:07.904Z,5.23
2018-12-22T02:16:37.037Z,8.93
2018-12-22T02:19:05.592Z,11.90
2018-12-22T02:21:34.100Z,8.60
2018-12-22T02:24:02.576Z,14.00
2018-12-22T02:26:31.029Z,6.83
2018-12-22T02:28:59.527Z,10.03
2018-12-22T02:31:28.006Z,5.47
2018-12-22T02:33:56.480Z,10.20
2018-12-22T02:36:25.082Z,5.60
2018-12-22T02:38:53.567Z,6.27
2018-12-22T02:41:22.005Z,8.33
2018-12-22T02:43:50.501Z,6.43
2018-12-22T02:46:18.993Z,11.53
2018-12-22T02:48:47.450Z,6.63
2018-12-22T02:51:15.943Z,6.40
2018-12-22T02:53:44.418Z,5.43
2018-12-22T02:56:12.907Z,4.83
2018-12-22T02:58:41.389Z,6.13
2018-12-22T03:01:09.858Z,4.67
2018-12-22T03:03:38.312Z,4.17
2018-12-22T03:06:06.802Z,6.53
2018-12-22T03:08:35.246Z,4.63
2018-12-22T03:11:03.717Z,3.20
2018-12-22T03:13:32.233Z,3.80
2018-12-22T03:16:00.672Z,4.00
2018-12-22T03:18:29.150Z,4.93
2018-12-22T03:20:57.656Z,5.37
2018-12-22T03:23:26.169Z,7.70
2018-12-22T03:25:54.629Z,6.60
2018-12-22T03:28:23.139Z,4.03
2018-12-22T03:30:51.831Z,8.70
2018-12-22T03:33:20.305Z,5.10
2018-12-22T03:35:48.801Z,3.70
2018-12-22T03:38:17.347Z,6.87
2018-12-22T03:40:45.868Z,4.07
2018-12-22T03:43:14.410Z,5.13
2018-12-22T03:45:42.924Z,10.10
2018-12-22T03:48:11.404Z,5.57
2018-12-22T03:50:39.909Z,3.80
2018-12-22T03:53:08.358Z,7.30
2018-12-22T03:55:36.887Z,4.23
2018-12-22T03:58:05.449Z,2.40
2018-12-22T04:00:33.996Z,4.30
2018-12-22T04:03:02.493Z,5.37
2018-12-22T04:05:30.974Z,2.77
2018-12-22T04:07:59.534Z,4.30
2018-12-22T04:10:28.035Z,4.70
2018-12-22T04:12:56.550Z,3.20
2018-12-22T04:15:25.025Z,4.30
2018-12-22T04:17:53.493Z,2.40
2018-12-22T04:20:22.129Z,2.87
2018-12-22T04:22:50.611Z,4.47
2018-12-22T04:25:19.080Z,4.50
2018-12-22T04:27:47.813Z,5.20
2018-12-22T04:30:16.320Z,5.47
2018-12-22T04:32:44.790Z,5.03
2018-12-22T04:35:13.324Z,4.70
2018-12-22T04:37:41.866Z,4.80
2018-12-22T04:40:10.333Z,7.00
2018-12-22T04:42:38.821Z,3.90
2018-12-22T04:45:07.332Z,4.13
2018-12-22T04:47:35.799Z,4.13
2018-12-22T04:50:04.655Z,2.87
2018-12-22T04:52:33.128Z,3.40
2018-12-22T04:55:01.682Z,2.77
2018-12-22T04:57:30.279Z,4.57
2018-12-22T04:59:58.771Z,4.77
2018-12-22T05:02:27.246Z,4.33
2018-12-22T05:04:55.762Z,3.63
2018-12-22T05:07:24.236Z,3.43
2018-12-22T05:09:52.751Z,6.50
2018-12-22T05:12:21.229Z,4.60
2018-12-22T05:14:49.700Z,5.80
2018-12-22T05:17:18.160Z,5.63
2018-12-22T05:19:46.664Z,6.40
2018-12-22T05:22:15.206Z,6.47
2018-12-22T05:24:43.686Z,10.20
2018-12-22T05:27:12.196Z,9.67
2018-12-22T05:29:40.666Z,8.63
2018-12-22T05:32:09.202Z,9.10
2018-12-22T05:34:37.720Z,12.20
2018-12-22T05:37:06.201Z,7.83
2018-12-22T05:39:34.700Z,8.20
2018-12-22T05:42:03.219Z,5.43
2018-12-22T05:44:31.727Z,4.37
2018-12-22T05:47:00.218Z,4.07
2018-12-22T05:49:28.714Z,3.93
2018-12-22T05:51:57.296Z,3.80
2018-12-22T05:54:25.848Z,5.47
2018-12-22T05:56:54.363Z,3.77
2018-12-22T05:59:22.853Z,3.03
2018-12-22T06:01:51.426Z,3.33
2018-12-22T06:04:19.936Z,3.40
2018-12-22T06:06:48.564Z,4.40
2018-12-22T06:09:17.013Z,3.53
2018-12-22T06:11:45.499Z,4.03
2018-12-22T06:14:13.963Z,4.43
2018-12-22T06:16:42.408Z,7.33
2018-12-22T06:19:10.948Z,3.30
2018-12-22T06:21:39.417Z,4.07
2018-12-22T06:24:08.013Z,4.77
2018-12-22T06:26:36.557Z,8.03
2018-12-22T06:29:04.999Z,4.93
2018-12-22T06:31:33.583Z,7.33
2018-12-22T06:34:02.199Z,4.50
2018-12-22T06:36:30.799Z,14.17
2018-12-22T06:38:59.538Z,17.17
2018-12-22T06:41:28.058Z,13.20
2018-12-22T06:43:56.566Z,14.67
2018-12-22T06:46:25.166Z,15.50
2018-12-22T06:48:53.670Z,11.97
2018-12-22T06:51:22.153Z,10.60
2018-12-22T06:53:50.644Z,10.80
2018-12-22T06:56:19.288Z,14.37
2018-12-22T06:58:47.792Z,11.60
2018-12-22T07:01:16.290Z,15.37
2018-12-22T07:03:44.785Z,18.77
2018-12-22T07:06:13.312Z,18.83
2018-12-22T07:08:41.824Z,28.77
2018-12-22T07:11:10.325Z,12.67
2018-12-22T07:13:38.786Z,9.30
2018-12-22T07:16:07.497Z,10.57
2018-12-22T07:18:36.173Z,17.20
2018-12-22T07:21:04.741Z,37.80
2018-12-22T07:23:33.210Z,11.07
2018-12-22T07:26:01.730Z,29.80
2018-12-22T07:28:30.221Z,17.07
2018-12-22T07:30:58.677Z,13.33
2018-12-22T07:33:27.182Z,13.67
2018-12-22T07:35:55.651Z,11.67
2018-12-22T07:38:24.113Z,15.93
2018-12-22T07:40:52.633Z,10.77
2018-12-22T07:43:21.128Z,14.50
2018-12-22T07:45:49.669Z,8.83
2018-12-22T07:48:18.327Z,30.07
2018-12-22T07:50:46.850Z,11.97
2018-12-22T07:53:15.349Z,11.40
2018-12-22T07:55:43.830Z,10.80
2018-12-22T07:58:12.477Z,16.00
2018-12-22T08:00:41.927Z,10.83
2018-12-22T08:03:10.434Z,12.30
2018-12-22T08:05:39.196Z,12.17
2018-12-22T08:08:07.811Z,11.37
2018-12-22T08:10:36.323Z,14.07
2018-12-22T08:13:04.789Z,7.70
2018-12-22T08:15:33.280Z,9.10
2018-12-22T08:18:01.977Z,14.57
2018-12-22T08:20:30.466Z,8.60
2018-12-22T08:22:58.920Z,10.13
2018-12-22T08:25:27.517Z,11.60
2018-12-22T08:27:56.019Z,16.03
2018-12-22T08:30:24.544Z,11.83
2018-12-22T08:32:53.169Z,14.23
2018-12-22T08:35:21.645Z,13.80
2018-12-22T08:37:50.138Z,17.90
2018-12-22T08:40:22.290Z,16.13
2018-12-22T08:42:50.905Z,18.63
2018-12-22T08:45:19.394Z,31.77
2018-12-22T08:47:47.884Z,17.47
2018-12-22T08:50:16.316Z,11.47
2018-12-22T08:52:44.828Z,10.50
2018-12-22T08:55:13.489Z,12.20
2018-12-22T08:57:41.998Z,10.20
2018-12-22T09:00:12.590Z,11.57
2018-12-22T09:02:41.213Z,10.73
2018-12-22T09:05:09.910Z,8.03
2018-12-22T09:07:38.366Z,8.23
2018-12-22T09:10:08.672Z,7.33
2018-12-22T09:12:37.168Z,6.50
2018-12-22T09:15:06.962Z,7.90
2018-12-22T09:17:35.451Z,10.83
2018-12-22T09:20:04.425Z,10.67
2018-12-22T09:22:33.021Z,5.70
2018-12-22T09:25:01.555Z,6.93
2018-12-22T09:27:30.058Z,4.57
2018-12-22T09:29:58.639Z,4.03
2018-12-22T09:32:27.296Z,5.30
2018-12-22T09:34:55.816Z,3.87
2018-12-22T09:37:24.463Z,3.73
2018-12-22T09:39:52.977Z,3.57
2018-12-22T09:42:21.487Z,7.33
2018-12-22T09:44:49.960Z,4.73
2018-12-22T09:47:18.531Z,3.10
2018-12-22T09:49:47.035Z,4.83
2018-12-22T09:52:15.593Z,6.20
2018-12-22T09:54:44.102Z,4.47
2018-12-22T09:57:12.621Z,4.70
2018-12-22T09:59:41.194Z,3.13
2018-12-22T10:02:09.740Z,2.80
2018-12-22T10:04:39.060Z,2.63
2018-12-22T10:07:07.572Z,2.33
2018-12-22T10:09:36.230Z,2.47
2018-12-22T10:12:05.015Z,2.23
2018-12-22T10:14:33.926Z,2.87
2018-12-22T10:17:04.856Z,2.50
2018-12-22T10:19:33.317Z,1.40
2018-12-22T10:22:02.302Z,1.40
2018-12-22T10:24:31.710Z,1.90
2018-12-22T10:27:00.227Z,2.70
2018-12-22T10:29:28.767Z,2.30
2018-12-22T10:31:57.244Z,1.73
2018-12-22T10:34:25.813Z,2.87
2018-12-22T10:36:54.405Z,3.50
2018-12-22T10:39:22.933Z,3.90
2018-12-22T10:41:51.467Z,3.23
2018-12-22T10:44:20.016Z,2.00
2018-12-22T10:46:48.534Z,1.70
2018-12-22T10:49:17.017Z,1.20
2018-12-22T10:51:45.680Z,2.53
2018-12-22T10:54:14.220Z,2.83
2018-12-22T10:56:42.750Z,1.87
2018-12-22T10:59:11.316Z,1.57
2018-12-22T11:01:39.864Z,1.33
2018-12-22T11:04:08.328Z,1.43
2018-12-22T11:06:36.856Z,3.93
2018-12-22T11:09:09.730Z,1.70
2018-12-22T11:11:38.557Z,1.53
2018-12-22T11:14:07.031Z,5.43
2018-12-22T11:16:35.501Z,2.70
2018-12-22T11:19:03.980Z,1.97
2018-12-22T11:21:32.465Z,2.37
2018-12-22T11:24:02.872Z,1.20
2018-12-22T11:26:31.475Z,2.27
2018-12-22T11:29:00.022Z,2.47
2018-12-22T11:31:35.017Z,2.40
2018-12-22T11:33:59.041Z,1.67
2018-12-22T11:36:27.682Z,1.30
2018-12-22T11:38:56.213Z,1.47
2018-12-22T11:41:24.728Z,1.30
2018-12-22T11:43:53.206Z,1.40
2018-12-22T11:46:21.699Z,1.73
2018-12-22T11:49:12.632Z,1.90
2018-12-22T11:51:41.192Z,1.90
2018-12-22T11:54:09.804Z,1.00
2018-12-22T11:56:38.352Z,1.80
2018-12-22T11:59:06.985Z,1.97
2018-12-22T12:01:43.404Z,1.20
2018-12-22T12:04:06.045Z,2.50
2018-12-22T12:06:34.596Z,1.57
2018-12-22T12:09:04.047Z,1.40
2018-12-22T12:11:32.723Z,1.70
2018-12-22T12:14:01.371Z,1.63
2018-12-22T12:16:37.000Z,1.73
2018-12-22T12:19:23.398Z,1.90
2018-12-22T12:21:51.919Z,1.63
2018-12-22T12:24:20.390Z,2.30
2018-12-22T12:26:48.945Z,2.23
2018-12-22T12:29:17.445Z,1.07
2018-12-22T12:31:52.152Z,2.90
2018-12-22T12:34:16.511Z,1.67
2018-12-22T12:36:45.077Z,2.60
2018-12-22T12:39:15.542Z,1.07
2018-12-22T12:41:44.507Z,4.80
2018-12-22T12:44:13.083Z,2.03
2018-12-22T12:46:44.988Z,2.87
2018-12-22T12:49:14.222Z,2.00
2018-12-22T12:51:42.890Z,2.50
2018-12-22T12:54:11.426Z,1.20
2018-12-22T12:56:45.319Z,1.40
2018-12-22T12:59:13.864Z,1.70
2018-12-22T13:01:42.361Z,1.57
2018-12-22T13:04:10.845Z,2.47
2018-12-22T13:06:39.415Z,2.30
2018-12-22T13:09:09.001Z,3.17
2018-12-22T13:11:37.629Z,8.07
2018-12-22T13:14:12.452Z,3.70
2018-12-22T13:16:40.880Z,3.30
2018-12-22T13:19:09.339Z,2.97
2018-12-22T13:21:39.117Z,2.83
2018-12-22T13:24:07.598Z,2.57
2018-12-22T13:26:36.937Z,1.90
2018-12-22T13:29:05.970Z,2.77
2018-12-22T13:31:34.564Z,3.87
2018-12-22T13:34:03.020Z,2.63
2018-12-22T13:36:34.897Z,3.13
2018-12-22T13:39:06.269Z,2.47
2018-12-22T13:41:36.779Z,2.43
2018-12-22T13:44:05.253Z,2.07
2018-12-22T13:46:33.716Z,1.93
2018-12-22T13:49:02.446Z,2.00
2018-12-22T13:51:31.145Z,2.07
2018-12-22T13:53:59.633Z,2.27
2018-12-22T13:56:30.050Z,2.35
2018-12-22T13:58:59.206Z,2.00
2018-12-22T14:01:31.283Z,1.70
2018-12-22T14:03:59.920Z,1.53
2018-12-22T14:06:31.736Z,2.30
2018-12-22T14:09:00.289Z,1.80
2018-12-22T14:11:28.841Z,2.50
2018-12-22T14:13:58.706Z,3.03
2018-12-22T14:16:40.225Z,3.40
2018-12-22T14:19:09.445Z,4.37
2018-12-22T14:21:44.704Z,4.08
2018-12-22T14:24:20.458Z,2.60
2018-12-22T14:26:49.070Z,3.43
2018-12-22T14:29:17.588Z,2.70
2018-12-22T14:31:46.105Z,3.67
2018-12-22T14:34:20.912Z,3.67
2018-12-22T14:36:49.443Z,3.97
2018-12-22T14:39:17.943Z,5.50
2018-12-22T14:41:46.405Z,6.27
2018-12-22T14:44:14.954Z,3.50
2018-12-22T14:46:43.483Z,3.30
2018-12-22T14:49:11.986Z,3.07
2018-12-22T14:51:40.819Z,3.90
2018-12-22T14:54:09.589Z,2.60
2018-12-22T14:56:42.166Z,3.10
2018-12-22T14:59:12.846Z,2.53
2018-12-22T15:01:41.360Z,2.47
2018-12-22T15:04:10.252Z,3.57
2018-12-22T15:06:38.812Z,3.07
2018-12-22T15:09:13.262Z,2.70
2018-12-22T15:11:38.371Z,3.03
2018-12-22T15:14:06.839Z,3.93
2018-12-22T15:16:35.337Z,5.13
2018-12-22T15:19:03.867Z,4.20
2018-12-22T15:21:32.325Z,4.57
2018-12-22T15:24:01.281Z,4.73
2018-12-22T15:26:29.783Z,3.20
2018-12-22T15:28:58.293Z,4.63
2018-12-22T15:31:27.553Z,2.60
2018-12-22T15:33:56.038Z,6.90
2018-12-22T15:36:24.510Z,4.03
2018-12-22T15:38:53.006Z,3.17
2018-12-22T15:41:22.584Z,5.50
2018-12-22T15:43:51.810Z,4.33
2018-12-22T15:46:20.400Z,3.70
2018-12-22T15:48:48.910Z,7.13
2018-12-22T15:51:17.425Z,8.13
2018-12-22T15:53:45.978Z,10.10
2018-12-22T15:56:14.480Z,5.20
2018-12-22T15:58:42.935Z,6.47
2018-12-22T16:01:11.449Z,5.07
2018-12-22T16:03:40.070Z,9.23
2018-12-22T16:06:09.560Z,6.57
2018-12-22T16:08:38.117Z,5.93
2018-12-22T16:11:06.619Z,5.47
2018-12-22T16:13:35.109Z,4.27
2018-12-22T16:16:03.715Z,4.27
2018-12-22T16:18:32.269Z,4.17
2018-12-22T16:21:00.837Z,5.80
2018-12-22T16:23:29.385Z,7.53
2018-12-22T16:25:58.386Z,5.30
2018-12-22T16:28:30.016Z,4.80
2018-12-22T16:30:59.286Z,5.27
2018-12-22T16:33:27.872Z,3.83
2018-12-22T16:35:56.442Z,5.03
2018-12-22T16:38:25.029Z,7.17
2018-12-22T16:40:53.535Z,4.67
2018-12-22T16:43:22.028Z,4.53
2018-12-22T16:45:51.897Z,7.17
2018-12-22T16:48:22.972Z,5.07
2018-12-22T16:50:51.641Z,6.37
2018-12-22T16:53:20.410Z,8.97
2018-12-22T16:55:48.911Z,6.00
2018-12-22T16:58:25.445Z,8.97
2018-12-22T17:00:59.285Z,10.33
2018-12-22T17:03:27.914Z,7.50
2018-12-22T17:05:57.775Z,15.40
2018-12-22T17:08:26.382Z,13.80
2018-12-22T17:10:58.525Z,10.43
2018-12-22T17:13:27.084Z,16.73
2018-12-22T17:15:57.825Z,40.33
2018-12-22T17:18:26.938Z,16.93
2018-12-22T17:21:02.664Z,19.60
2018-12-22T17:23:47.079Z,17.37
2018-12-22T17:26:15.679Z,20.27
2018-12-22T17:28:44.182Z,13.58
2018-12-22T17:31:12.783Z,16.03
2018-12-22T17:33:41.260Z,8.17
2018-12-22T17:36:09.713Z,11.83
2018-12-22T17:38:38.212Z,8.60
2018-12-22T17:41:06.821Z,7.80
2018-12-22T17:43:36.331Z,7.83
2018-12-22T17:46:04.918Z,10.27
2018-12-22T17:48:33.421Z,8.07
2018-12-22T17:51:01.923Z,9.83
2018-12-22T17:53:30.510Z,6.97
2018-12-22T17:55:58.992Z,7.73
2018-12-22T17:58:27.946Z,10.97
2018-12-22T18:00:57.791Z,7.80
2018-12-22T18:03:30.784Z,8.50
2018-12-22T18:06:00.867Z,7.20
2018-12-22T18:08:29.392Z,9.77
2018-12-22T18:10:57.870Z,15.37
2018-12-22T18:13:28.128Z,14.60
2018-12-22T18:15:56.869Z,15.00
2018-12-22T18:18:25.497Z,13.20
2018-12-22T18:20:54.073Z,18.20
2018-12-22T18:23:25.253Z,32.30
2018-12-22T18:25:53.835Z,34.47
2018-12-22T18:28:22.419Z,21.87
2018-12-22T18:30:52.054Z,16.00
2018-12-22T18:33:20.763Z,7.87
2018-12-22T18:35:49.439Z,11.50
2018-12-22T18:38:18.979Z,14.87
2018-12-22T18:40:47.493Z,23.87
2018-12-22T18:43:16.074Z,12.00
2018-12-22T18:45:44.629Z,8.80
2018-12-22T18:48:13.128Z,9.53
2018-12-22T18:50:41.645Z,8.27
2018-12-22T18:53:10.162Z,5.67
2018-12-22T18:55:38.685Z,4.97
2018-12-22T18:58:09.108Z,7.60
2018-12-22T19:00:37.676Z,5.00
2018-12-22T19:03:06.201Z,6.13
2018-12-22T19:05:34.733Z,5.93
2018-12-22T19:08:13.349Z,8.03
2018-12-22T19:10:45.296Z,6.30
2018-12-22T19:13:13.819Z,9.03
2018-12-22T19:15:42.331Z,8.37
2018-12-22T19:18:10.878Z,5.50
2018-12-22T19:20:43.771Z,9.10
2018-12-22T19:23:13.228Z,6.10
2018-12-22T19:25:41.986Z,11.97
2018-12-22T19:28:10.671Z,5.33
2018-12-22T19:30:39.506Z,7.43
2018-12-22T19:33:08.755Z,8.40
2018-12-22T19:35:37.344Z,11.23
2018-12-22T19:38:05.893Z,16.47
2018-12-22T19:40:34.415Z,7.97
2018-12-22T19:43:02.989Z,7.73
2018-12-22T19:45:31.545Z,8.63
2018-12-22T19:48:00.298Z,8.57
2018-12-22T19:50:28.929Z,8.47
2018-12-22T19:52:59.061Z,9.37
2018-12-22T19:55:27.714Z,7.33
2018-12-22T19:57:59.014Z,9.47
2018-12-22T20:00:27.622Z,7.20
2018-12-22T20:02:56.250Z,10.13
2018-12-22T20:05:24.870Z,6.47
2018-12-22T20:07:53.562Z,10.37
2018-12-22T20:10:23.775Z,13.53
2018-12-22T20:12:52.619Z,7.37
2018-12-22T20:15:21.158Z,13.43
2018-12-22T20:17:50.084Z,7.33
2018-12-22T20:20:18.727Z,7.77
2018-12-22T20:22:47.262Z,10.10
2018-12-22T20:25:16.095Z,7.93
2018-12-22T20:27:44.747Z,9.20
2018-12-22T20:30:13.399Z,9.77
2018-12-22T20:33:02.178Z,7.63
2018-12-22T20:35:30.972Z,9.83
2018-12-22T20:38:01.512Z,6.73
2018-12-22T20:40:30.250Z,7.43
2018-12-22T20:42:58.930Z,8.47
2018-12-22T20:45:27.495Z,5.60
2018-12-22T20:47:56.005Z,7.43
2018-12-22T20:50:24.603Z,6.90
2018-12-22T20:52:54.100Z,5.67
2018-12-22T20:55:22.679Z,8.23
2018-12-22T20:57:51.370Z,8.37
2018-12-22T21:00:21.404Z,6.80
2018-12-22T21:02:50.094Z,12.30
2018-12-22T21:05:21.013Z,12.77
2018-12-22T21:07:49.531Z,14.07
2018-12-22T21:10:18.105Z,8.57
2018-12-22T21:12:50.086Z,12.60
2018-12-22T21:15:18.650Z,10.47
2018-12-22T21:17:47.203Z,8.07
2018-12-22T21:20:15.851Z,6.97
2018-12-22T21:22:44.410Z,13.20
2018-12-22T21:25:13.154Z,9.07
2018-12-22T21:27:41.771Z,13.93
2018-12-22T21:30:10.477Z,13.13
2018-12-22T21:32:39.224Z,9.73
2018-12-22T21:35:08.038Z,11.93
2018-12-22T21:37:36.616Z,12.20
2018-12-22T21:40:05.601Z,15.60
2018-12-22T21:42:34.732Z,8.27
2018-12-22T21:45:03.531Z,6.40
2018-12-22T21:47:33.467Z,6.67
2018-12-22T21:50:02.125Z,9.30
2018-12-22T21:52:30.800Z,9.53
2018-12-22T21:55:00.514Z,8.63
2018-12-22T21:57:29.196Z,7.87
2018-12-22T21:59:58.087Z,6.83
2018-12-22T22:02:27.165Z,5.50
2018-12-22T22:04:55.900Z,5.77
2018-12-22T22:07:24.430Z,4.60
2018-12-22T22:09:53.477Z,8.77
2018-12-22T22:12:22.112Z,6.50
2018-12-22T22:14:50.605Z,6.97
2018-12-22T22:17:19.205Z,7.47
2018-12-22T22:19:47.835Z,7.17
2018-12-22T22:22:16.385Z,7.77
2018-12-22T22:24:44.886Z,5.43
2018-12-22T22:27:13.757Z,6.90
2018-12-22T22:29:42.412Z,8.30
2018-12-22T22:32:11.096Z,8.80
2018-12-22T22:34:45.577Z,8.43
2018-12-22T22:37:10.434Z,9.70
2018-12-22T22:39:38.943Z,11.57
2018-12-22T22:42:07.638Z,7.97
2018-12-22T22:44:36.189Z,6.20
2018-12-22T22:47:05.477Z,7.37
2018-12-22T22:49:33.989Z,9.38
2018-12-22T22:52:02.553Z,7.40
2018-12-22T22:54:31.063Z,5.00
2018-12-22T22:57:00.644Z,10.27
2018-12-22T22:59:29.279Z,7.70
2018-12-22T23:01:57.806Z,7.70
2018-12-22T23:04:26.321Z,8.63
2018-12-22T23:06:54.910Z,5.03
2018-12-22T23:09:23.481Z,8.53
2018-12-22T23:11:52.134Z,5.10
2018-12-22T23:14:21.149Z,9.77
2018-12-22T23:16:49.698Z,6.80
2018-12-22T23:19:18.173Z,4.07
2018-12-22T23:21:46.641Z,5.97
2018-12-22T23:24:15.231Z,4.53
2018-12-22T23:26:43.849Z,4.53
2018-12-22T23:29:12.422Z,4.87
2018-12-22T23:31:41.125Z,2.60
2018-12-22T23:34:09.665Z,3.63
2018-12-22T23:36:38.213Z,4.97
2018-12-22T23:39:07.323Z,8.57
2018-12-22T23:41:35.811Z,5.00
2018-12-22T23:44:04.310Z,4.20
2018-12-22T23:46:32.836Z,4.63
2018-12-22T23:49:01.350Z,3.83
2018-12-22T23:51:29.856Z,3.40
2018-12-22T23:53:58.420Z,2.70
2018-12-22T23:56:26.938Z,3.00
2018-12-22T23:58:55.398Z,2.73
